Washington, NJ (07882)

9:33 AM EDT on October 31, 2014 (GMT -0400)
Washington Twp | Change Station
CLOSE
Current Station
Personal Weather Station
Location: Washington, NJ
Elevation: 512 ft
Nearby Weather Stations

Elev 512 ft 40.77 °N, 74.99 °W | Updated 13 minutes ago

Clear
Clear
39.2 °F
Feels Like 39 °F
N
1.1
Wind Variable Wind from SE

Today
High -- | Low -- °F
--% Chance of Precip.
Yesterday
High -- | Low -- °F
Precip. -- in
7:29 AM 5:57 PM
First Quarter, 55% visible
Pressure 30.02 in
Visibility 9.0 miles
Clouds Overcast 4800 ft
Windchill 39 °F
Dew Point 37 °F
Humidity 91%
Rainfall 0.00 in
Snow Depth Not available.
UV 0 out of 12
Pollen .30 out of 12
Air Quality Not available.
Flu Activity Not available.
METAR KSMQ 311253Z AUTO 00000KT 9SM OVC048 01/M01 A3002 RMK AO2 SLP166 T00061011

More Conditions Fewer Conditions

Pressure 30.02 in
Visibility 9.0 miles
Clouds Overcast 4800 ft
Windchill 39 °F
Dew Point 37 °F
Humidity 91%
Rainfall 0.00 in
Snow Depth Not available.
UV 0 out of 12
Pollen .30 out of 12
Air Quality Not available.
Flu Activity Not available.
METAR KSMQ 311253Z AUTO 00000KT 9SM OVC048 01/M01 A3002 RMK AO2 SLP166 T00061011

More Conditions Fewer Conditions

10-Day Weather Forecast

Almanac

Astronomy

Oct. 31, 2014 Rise Set
Actual Time
Civil Twilight
Nautical Twilight
Astronomical Twilight
Moon
Length of Visible Light
Length of Day
Tomorrow will be .
, % of the Moon is Illuminated

Today's Extremes

State Highs State Lows

Community

WunderPhotos

Upload Photos

1,766,610 photos uploaded!

WunderBlogs® & News

Nearby

Air Quality

  Air Quality AQ Index Pollutant
Not available.

Snow Depth

Station Depth Elevation

Earthquake Activity

City Distance Mag. Time & Date
Minimum magnitude displayed is 2.5.

Coastal Water Temperatures

Place Temperature

Nearby Weather Stations